TimeEDT,TemperatureF,Dew PointF,Humidity,Sea Level PressureIn,VisibilityMPH,Wind Direction,Wind SpeedMPH,Gust SpeedMPH,PrecipitationIn,Events,Conditions,WindDirDegrees,DateUTC
1:01 AM,66.2,62.6,88,29.86,2.0,WSW,4.6,-,0.02,Rain-Thunderstorm,Heavy Thunderstorms and Rain,250,2013-08-13 05:01:00
1:10 AM,66.2,62.6,88,29.84,9.0,WSW,3.5,-,0.08,Rain-Thunderstorm,Light Thunderstorms and Rain,240,2013-08-13 05:10:00
1:39 AM,66.2,62.6,88,29.83,10.0,South,5.8,-,0.08,Rain,Light Rain,170,2013-08-13 05:39:00
1:54 AM,66.9,62.1,84,29.82,10.0,Calm,Calm,-,0.09,Rain,Light Rain,0,2013-08-13 05:54:00
2:54 AM,66.0,63.0,90,29.81,3.0,SSW,4.6,-,0.07,Rain-Thunderstorm,Heavy Thunderstorms and Rain,200,2013-08-13 06:54:00
3:32 AM,64.4,62.6,94,29.79,10.0,SSE,5.8,-,0.08,Rain,Light Rain,160,2013-08-13 07:32:00
3:54 AM,64.9,63.0,93,29.78,10.0,SSE,3.5,-,0.08,Rain,Light Rain,150,2013-08-13 07:54:00
4:54 AM,64.9,63.0,93,29.79,10.0,South,4.6,-,0.00,,Overcast,180,2013-08-13 08:54:00
5:54 AM,64.0,63.0,96,29.77,10.0,South,4.6,-,0.00,,Overcast,170,2013-08-13 09:54:00
6:54 AM,64.9,63.0,93,29.77,10.0,SW,5.8,-,N/A,,Mostly Cloudy,220,2013-08-13 10:54:00
7:54 AM,66.0,63.0,90,29.77,10.0,SW,5.8,-,N/A,,Mostly Cloudy,220,2013-08-13 11:54:00
8:54 AM,68.0,64.0,87,29.77,10.0,West,5.8,-,N/A,,Mostly Cloudy,280,2013-08-13 12:54:00
9:54 AM,66.9,62.1,84,29.78,6.0,NW,12.7,-,N/A,,Haze,310,2013-08-13 13:54:00
10:01 AM,66.2,62.6,88,29.79,6.0,WNW,9.2,-,N/A,,Overcast,300,2013-08-13 14:01:00
10:32 AM,68.0,62.6,83,29.79,9.0,NW,10.4,-,N/A,,Mostly Cloudy,310,2013-08-13 14:32:00
10:54 AM,68.0,61.0,78,29.79,10.0,NW,11.5,-,N/A,,Mostly Cloudy,320,2013-08-13 14:54:00
11:12 AM,69.8,60.8,73,29.80,10.0,WNW,10.4,-,N/A,,Overcast,300,2013-08-13 15:12:00
11:54 AM,69.1,60.1,73,29.81,10.0,NW,10.4,-,N/A,,Mostly Cloudy,310,2013-08-13 15:54:00
12:54 PM,66.9,57.9,73,29.82,10.0,West,13.8,-,N/A,,Overcast,280,2013-08-13 16:54:00
1:54 PM,68.0,55.9,65,29.82,10.0,WNW,10.4,-,N/A,,Overcast,300,2013-08-13 17:54:00
2:54 PM,68.0,55.0,63,29.82,10.0,West,13.8,18.4,N/A,,Mostly Cloudy,270,2013-08-13 18:54:00
3:54 PM,70.0,53.1,55,29.83,10.0,West,18.4,21.9,N/A,,Mostly Cloudy,280,2013-08-13 19:54:00
4:54 PM,68.0,50.0,52,29.84,10.0,West,18.4,27.6,N/A,,Mostly Cloudy,280,2013-08-13 20:54:00
5:54 PM,64.9,48.0,54,29.86,10.0,WNW,17.3,25.3,N/A,,Mostly Cloudy,290,2013-08-13 21:54:00
6:54 PM,62.1,46.9,58,29.88,10.0,WNW,18.4,27.6,N/A,,Overcast,290,2013-08-13 22:54:00
7:54 PM,61.0,46.0,58,29.89,10.0,West,11.5,24.2,N/A,,Mostly Cloudy,280,2013-08-13 23:54:00
8:54 PM,60.1,46.0,60,29.90,10.0,West,18.4,24.2,N/A,,Mostly Cloudy,280,2013-08-14 00:54:00
9:54 PM,59.0,46.0,62,29.91,10.0,West,10.4,19.6,N/A,,Overcast,280,2013-08-14 01:54:00
10:54 PM,57.9,46.0,65,29.91,10.0,West,11.5,-,N/A,,Mostly Cloudy,260,2013-08-14 02:54:00
11:54 PM,55.9,46.0,69,29.90,10.0,West,9.2,-,N/A,,Scattered Clouds,260,2013-08-14 03:54:00